KAVX/AVX METAR and TAF weather

Enter ICAO airport designator
Station Type Date Time Source
KAVX METAR 2022/06/25 22:51 UTC NOAA

KAVX 252251Z AUTO 24008KT 10SM CLR 27/07 A2996 RMK AO2 SLP113 T02670072


Station Type Date Time Source
KAVX Decoded METAR 2022/06/25 22:51 UTC NOAA

AVALON CATALINA AIRPORT, CA, United States (KAVX) 33-24N 118-25W 482M
Jun 25, 2022 - 06:51 PM EDT / 2022.06.25 2251 UTC
Wind: from the WSW (240 degrees) at 9 MPH (8 KT):0
Visibility: 10 mile(s):0
Sky conditions: clear
Temperature: 80.1 F (26.7 C)
Dew Point: 45.0 F (7.2 C)
Relative Humidity: 28%
Pressure (altimeter): 29.96 in. Hg (1014 hPa)
ob: KAVX 252251Z AUTO 24008KT 10SM CLR 27/07 A2996 RMK AO2 SLP113 T02670072
cycle: 23

Station Type Date Time Source
KAVX TAF UTC NOAA

Error!

Example: see airport list